Time;durP1;ratioP1;P1;durP2;ratioP2;P2;SDS_P1;SDS_P2;PMS_P1;PMS_P2;Temp;Humidity;BMP_temperature;BMP_pressure;BME280_temperature;BME280_humidity;BME280_pressure;Samples;Min_cycle;Max_cycle;Signal;HPM_P1;HPM_P2
2022/06/10 00:00:43;;;;;;;4.85;1.02;;;17.10;99.90;;;;;;5079301;28;20042;-69
2022/06/10 00:03:11;;;;;;;7.65;1.50;;;17.10;99.90;;;;;;5079277;28;20029;-69
2022/06/10 00:05:38;;;;;;;10.45;1.67;;;17.30;99.90;;;;;;5079559;28;20047;-69
2022/06/10 00:08:06;;;;;;;7.20;1.20;;;17.30;99.90;;;;;;5078939;28;20116;-68
2022/06/10 00:10:32;;;;;;;9.60;1.27;;;17.20;99.90;;;;;;5078897;28;20033;-68
2022/06/10 00:12:58;;;;;;;8.50;1.70;;;17.00;99.90;;;;;;5079034;28;20059;-69
2022/06/10 00:15:25;;;;;;;6.95;1.42;;;17.00;99.90;;;;;;5078890;28;20281;-68
2022/06/10 00:17:51;;;;;;;7.90;1.58;;;16.80;99.90;;;;;;5078929;28;20036;-68
2022/06/10 00:20:20;;;;;;;7.65;1.38;;;16.70;99.90;;;;;;5078738;28;20333;-69
2022/06/10 00:22:46;;;;;;;8.07;1.52;;;16.90;99.90;;;;;;5078863;28;20017;-68
2022/06/10 00:25:12;;;;;;;7.90;1.63;;;17.00;99.90;;;;;;5061341;28;20086;-68
2022/06/10 00:27:38;;;;;;;9.68;1.70;;;17.10;99.90;;;;;;5078649;28;20486;-68
2022/06/10 00:30:06;;;;;;;8.38;1.63;;;17.00;99.90;;;;;;5077789;28;20067;-68
2022/06/10 00:32:32;;;;;;;8.77;1.58;;;16.90;99.90;;;;;;5078458;28;20323;-69
2022/06/10 00:34:58;;;;;;;10.35;1.33;;;16.80;99.90;;;;;;5078554;28;20044;-68
2022/06/10 00:37:24;;;;;;;6.75;1.35;;;16.70;99.90;;;;;;5078299;28;20303;-68
2022/06/10 00:39:49;;;;;;;10.77;1.55;;;16.70;99.90;;;;;;5078360;28;20040;-68
2022/06/10 00:42:15;;;;;;;9.30;1.77;;;16.90;99.90;;;;;;5077605;28;20079;-68
2022/06/10 00:44:47;;;;;;;9.90;1.20;;;16.90;99.90;;;;;;5078896;28;20044;-68
2022/06/10 00:47:16;;;;;;;11.10;2.00;;;17.00;99.90;;;;;;5078400;28;20295;-69
2022/06/10 00:49:49;;;;;;;9.75;1.80;;;16.90;99.90;;;;;;5078157;28;20028;-68
2022/06/10 00:52:35;;;;;;;9.30;1.88;;;17.00;99.90;;;;;;5078108;28;20371;-68
2022/06/10 00:55:03;;;;;;;10.07;2.00;;;16.90;99.90;;;;;;5077426;28;20056;-70
2022/06/10 00:57:42;;;;;;;11.32;1.67;;;16.80;99.90;;;;;;5077944;28;20037;-68
2022/06/10 01:00:12;;;;;;;7.25;1.52;;;16.80;99.90;;;;;;5078221;28;20082;-68
2022/06/10 01:02:39;;;;;;;7.85;1.77;;;16.80;99.90;;;;;;5078207;28;20024;-69
2022/06/10 01:05:15;;;;;;;7.85;1.67;;;16.70;99.90;;;;;;5077901;28;20028;-69
2022/06/10 01:07:50;;;;;;;8.77;1.77;;;16.60;99.90;;;;;;5077923;28;20498;-69
2022/06/10 01:10:17;;;;;;;5.45;1.45;;;16.70;99.90;;;;;;5077410;28;20037;-69
2022/06/10 01:12:43;;;;;;;6.10;1.55;;;16.70;99.90;;;;;;5077688;28;20093;-69
2022/06/10 01:15:28;;;;;;;6.82;1.58;;;16.60;99.90;;;;;;5077175;28;20398;-69
2022/06/10 01:18:16;;;;;;;6.10;1.20;;;16.50;99.90;;;;;;5077885;28;20073;-69
2022/06/10 01:21:16;;;;;;;6.45;1.15;;;16.50;99.90;;;;;;5077650;28;20032;-69
2022/06/10 01:24:07;;;;;;;8.40;1.33;;;16.50;99.90;;;;;;5078213;28;20032;-70
2022/06/10 01:30:12;;;;;;;10.02;1.50;;;16.70;99.90;;;;;;5086300;28;20049;-70
2022/06/10 01:33:02;;;;;;;9.88;1.55;;;16.60;99.90;;;;;;5077354;28;20032;-69
2022/06/10 01:36:00;;;;;;;8.82;1.45;;;16.70;99.90;;;;;;5077257;28;20036;-70
2022/06/10 01:38:30;;;;;;;6.35;1.10;;;16.70;99.90;;;;;;5076818;28;20327;-70
2022/06/10 01:41:17;;;;;;;7.25;1.55;;;16.60;99.90;;;;;;5077427;28;20033;-70
2022/06/10 01:44:28;;;;;;;6.78;1.45;;;16.50;99.90;;;;;;5077849;28;20092;-70
2022/06/10 01:47:03;;;;;;;5.80;1.30;;;16.50;99.90;;;;;;5076424;28;20058;-67
2022/06/10 01:49:40;;;;;;;10.80;1.90;;;16.60;99.90;;;;;;5077284;28;20029;-68
2022/06/10 01:52:32;;;;;;;8.52;1.33;;;16.60;99.90;;;;;;5076971;28;20115;-67
2022/06/10 01:55:15;;;;;;;9.80;1.50;;;16.50;99.90;;;;;;5077134;28;20040;-69
2022/06/10 01:57:59;;;;;;;8.15;1.70;;;16.60;99.90;;;;;;5076394;28;20347;-69
2022/06/10 02:00:29;;;;;;;11.18;2.08;;;16.50;99.90;;;;;;5059744;28;20088;-70
2022/06/10 02:03:01;;;;;;;7.53;1.58;;;16.60;99.90;;;;;;5077044;28;20020;-69
2022/06/10 02:05:31;;;;;;;10.23;1.40;;;16.60;99.90;;;;;;5077027;28;20028;-69
2022/06/10 02:08:18;;;;;;;7.55;1.73;;;16.70;99.90;;;;;;5076299;28;20335;-69
2022/06/10 02:11:16;;;;;;;5.05;1.38;;;16.80;99.90;;;;;;5077080;28;20028;-69
2022/06/10 02:14:00;;;;;;;7.13;1.65;;;16.70;99.90;;;;;;5076183;28;20047;-68
2022/06/10 02:16:34;;;;;;;9.52;1.25;;;16.60;99.90;;;;;;5077176;28;20048;-69
2022/06/10 02:19:06;;;;;;;13.00;1.92;;;16.70;99.90;;;;;;5077053;28;20103;-69
2022/06/10 02:21:43;;;;;;;7.72;1.50;;;16.60;99.90;;;;;;5078333;28;20086;-68
2022/06/10 02:24:39;;;;;;;8.00;1.45;;;16.70;99.90;;;;;;5081135;28;20062;-69
2022/06/10 02:27:13;;;;;;;6.03;1.52;;;16.70;99.90;;;;;;5080751;28;20040;-69
2022/06/10 02:29:53;;;;;;;10.52;1.80;;;16.60;99.90;;;;;;5080907;28;20028;-69
2022/06/10 02:32:19;;;;;;;7.65;1.73;;;16.60;99.90;;;;;;5081129;28;20042;-69
2022/06/10 02:34:45;;;;;;;8.32;1.50;;;16.60;99.90;;;;;;5081033;28;20037;-69
2022/06/10 02:37:13;;;;;;;6.80;1.70;;;16.60;99.90;;;;;;5080190;28;20029;-69
2022/06/10 02:39:56;;;;;;;7.43;1.60;;;16.60;99.90;;;;;;5080585;28;20469;-69
2022/06/10 02:42:29;;;;;;;5.75;1.40;;;16.60;99.90;;;;;;5080780;28;20067;-69
2022/06/10 02:45:05;;;;;;;10.23;1.75;;;16.70;99.90;;;;;;5080704;28;20032;-70
2022/06/10 02:47:51;;;;;;;9.18;1.45;;;16.50;99.90;;;;;;5080915;28;20066;-70
2022/06/10 02:50:17;;;;;;;10.05;1.65;;;16.50;99.90;;;;;;5081162;28;20024;-69
2022/06/10 02:52:45;;;;;;;7.18;1.13;;;16.50;99.90;;;;;;5080468;28;20080;-71
2022/06/10 02:55:14;;;;;;;7.05;1.88;;;16.60;99.90;;;;;;5080751;28;20067;-70
2022/06/10 03:03:18;;;;;;;;;;;16.50;99.90;;;;;;5081048;28;20423;-69
2022/06/10 03:06:07;;;;;;;9.80;2.42;;;16.60;99.90;;;;;;5080730;28;20014;-70
2022/06/10 03:08:44;;;;;;;8.32;1.40;;;16.70;99.90;;;;;;5080561;28;20070;-70
2022/06/10 03:11:24;;;;;;;10.50;1.85;;;16.70;99.90;;;;;;5080148;28;20085;-70
2022/06/10 03:14:09;;;;;;;7.43;1.45;;;16.70;99.90;;;;;;5080630;28;20028;-70
2022/06/10 03:16:58;;;;;;;6.18;1.80;;;16.70;99.90;;;;;;5079704;28;20265;-70
2022/06/10 03:19:36;;;;;;;9.95;1.35;;;16.70;99.90;;;;;;5080580;28;20326;-70
2022/06/10 03:22:11;;;;;;;5.97;1.48;;;16.80;99.90;;;;;;5079072;28;20396;-69
2022/06/10 03:25:02;;;;;;;9.60;1.65;;;16.70;99.90;;;;;;5080193;28;20334;-69
2022/06/10 03:27:37;;;;;;;7.57;1.40;;;16.80;99.90;;;;;;5080034;28;20037;-70
2022/06/10 03:30:14;;;;;;;10.75;1.58;;;16.70;99.90;;;;;;5079117;28;20036;-70
2022/06/10 03:32:49;;;;;;;8.43;1.50;;;16.70;99.90;;;;;;5079190;28;20032;-70
2022/06/10 03:35:33;;;;;;;8.32;1.58;;;16.70;99.90;;;;;;5080333;28;20056;-69
2022/06/10 03:38:03;;;;;;;9.40;1.50;;;16.70;99.90;;;;;;5079822;28;20071;-69
2022/06/10 03:40:30;;;;;;;8.30;1.40;;;16.90;99.90;;;;;;5079531;28;20028;-69
2022/06/10 03:42:59;;;;;;;8.45;1.65;;;16.90;99.90;;;;;;5079469;28;20119;-70
2022/06/10 03:45:32;;;;;;;7.00;2.03;;;16.90;99.90;;;;;;5080001;28;20040;-71
2022/06/10 03:47:58;;;;;;;6.45;1.58;;;16.80;99.90;;;;;;5078967;28;20051;-71
2022/06/10 03:50:28;;;;;;;7.43;2.00;;;16.80;99.90;;;;;;5079317;28;20040;-70
2022/06/10 03:52:54;;;;;;;8.63;2.00;;;16.80;99.90;;;;;;5079255;28;20048;-70
2022/06/10 03:55:20;;;;;;;10.85;1.95;;;16.70;99.90;;;;;;5079888;28;20270;-70
2022/06/10 03:57:47;;;;;;;7.43;1.30;;;16.80;99.90;;;;;;5079290;28;20357;-70
2022/06/10 04:00:20;;;;;;;7.82;2.00;;;16.80;99.90;;;;;;5079332;28;20379;-70
2022/06/10 04:02:46;;;;;;;8.07;1.88;;;16.90;99.90;;;;;;5079601;28;20036;-71
2022/06/10 04:05:12;;;;;;;7.57;1.67;;;17.10;99.90;;;;;;5079219;28;20028;-70
2022/06/10 04:07:40;;;;;;;7.80;1.52;;;17.20;99.90;;;;;;5078470;28;20032;-70
2022/06/10 04:10:08;;;;;;;10.70;1.65;;;17.10;99.90;;;;;;5079262;28;20040;-70
2022/06/10 04:12:33;;;;;;;9.02;1.63;;;17.10;99.90;;;;;;5078830;28;20039;-70
2022/06/10 04:14:59;;;;;;;8.75;1.85;;;17.20;99.90;;;;;;5078076;28;20036;-70
2022/06/10 04:17:25;;;;;;;8.95;1.77;;;17.30;99.90;;;;;;5078951;28;20345;-70
2022/06/10 04:19:52;;;;;;;7.03;1.88;;;17.20;99.90;;;;;;5079060;28;20079;-69
2022/06/10 04:22:18;;;;;;;7.18;1.63;;;17.10;99.90;;;;;;5079086;28;20036;-70
2022/06/10 04:24:44;;;;;;;8.75;1.88;;;17.00;99.90;;;;;;5077963;28;20025;-70
2022/06/10 04:27:09;;;;;;;8.77;2.00;;;17.00;99.90;;;;;;5078727;28;20285;-70
2022/06/10 04:29:35;;;;;;;12.43;2.65;;;16.90;99.90;;;;;;5078812;28;20033;-69
2022/06/10 04:32:01;;;;;;;8.30;2.22;;;17.00;99.90;;;;;;5078803;28;20029;-70
2022/06/10 04:34:27;;;;;;;7.65;2.70;;;16.90;99.90;;;;;;5078555;28;20029;-70
2022/06/10 04:36:52;;;;;;;8.48;2.22;;;16.90;99.90;;;;;;5078537;28;20127;-70
2022/06/10 04:39:18;;;;;;;9.98;2.17;;;16.90;99.90;;;;;;5078525;28;20024;-70
2022/06/10 04:41:44;;;;;;;11.15;2.72;;;17.00;99.90;;;;;;5078696;28;20040;-70
2022/06/10 04:44:10;;;;;;;11.52;2.45;;;17.10;99.90;;;;;;5077360;28;20089;-70
2022/06/10 04:46:40;;;;;;;10.18;2.90;;;17.30;99.90;;;;;;5078300;28;20119;-71
2022/06/10 04:49:07;;;;;;;6.38;2.30;;;17.20;99.90;;;;;;5078513;28;20085;-70
2022/06/10 04:51:34;;;;;;;13.40;2.65;;;17.20;99.90;;;;;;5078223;28;20056;-69
2022/06/10 04:54:00;;;;;;;10.05;2.78;;;17.20;99.90;;;;;;5078147;28;20028;-69
2022/06/10 04:56:26;;;;;;;7.30;2.45;;;17.30;99.90;;;;;;5078003;28;20036;-70
2022/06/10 04:58:52;;;;;;;7.05;2.78;;;17.40;99.90;;;;;;5078612;28;20025;-70
2022/06/10 05:01:18;;;;;;;9.05;3.22;;;17.50;99.90;;;;;;5078128;28;20025;-70
2022/06/10 05:03:43;;;;;;;11.35;3.20;;;17.50;99.90;;;;;;5078298;28;20449;-70
2022/06/10 05:06:10;;;;;;;11.85;3.40;;;17.50;99.90;;;;;;5077343;28;20032;-70
2022/06/10 05:08:36;;;;;;;9.80;3.20;;;17.60;99.90;;;;;;5077825;28;20355;-70
2022/06/10 05:11:01;;;;;;;11.32;3.20;;;17.60;99.90;;;;;;5077710;28;20029;-69
2022/06/10 05:13:27;;;;;;;8.48;3.40;;;17.60;99.90;;;;;;5077452;28;20036;-70
2022/06/10 05:15:53;;;;;;;9.57;3.20;;;17.70;99.90;;;;;;5078232;28;20420;-70
2022/06/10 05:18:22;;;;;;;10.27;3.35;;;17.70;99.90;;;;;;5078204;28;20115;-70
2022/06/10 05:20:49;;;;;;;15.75;3.78;;;17.70;99.90;;;;;;5077851;28;20452;-70
2022/06/10 05:23:22;;;;;;;12.07;4.18;;;17.70;99.90;;;;;;5077746;28;20039;-69
2022/06/10 05:25:48;;;;;;;10.88;3.63;;;17.60;99.90;;;;;;5060296;28;20021;-70
2022/06/10 05:28:14;;;;;;;8.68;2.92;;;17.50;99.90;;;;;;5077494;28;20032;-70
2022/06/10 05:30:41;;;;;;;8.60;2.90;;;17.60;99.90;;;;;;5077433;28;20052;-70
2022/06/10 05:33:09;;;;;;;10.65;2.90;;;17.50;99.90;;;;;;5077615;28;20104;-69
2022/06/10 05:35:36;;;;;;;7.38;2.05;;;17.50;99.90;;;;;;5076759;28;20029;-70
2022/06/10 05:38:02;;;;;;;9.70;2.42;;;17.40;99.90;;;;;;5077358;28;20016;-70
2022/06/10 05:40:30;;;;;;;7.43;1.98;;;17.50;99.90;;;;;;5077737;28;20089;-70
2022/06/10 05:42:56;;;;;;;7.50;2.45;;;17.40;99.90;;;;;;5077273;28;20032;-70
2022/06/10 05:45:23;;;;;;;7.32;2.25;;;17.30;99.90;;;;;;5077809;28;20029;-70
2022/06/10 05:47:52;;;;;;;7.25;1.90;;;17.40;99.90;;;;;;5077307;28;20107;-69
2022/06/10 05:50:24;;;;;;;5.78;1.73;;;17.60;99.90;;;;;;5076375;28;20033;-69
2022/06/10 05:52:50;;;;;;;6.75;1.90;;;17.40;99.90;;;;;;5077090;28;20095;-69
2022/06/10 05:55:17;;;;;;;7.70;1.98;;;17.50;99.90;;;;;;5076481;28;20411;-69
2022/06/10 05:57:43;;;;;;;7.00;2.00;;;17.50;99.90;;;;;;5076295;28;20016;-69
2022/06/10 06:00:24;;;;;;;6.43;1.60;;;17.50;99.90;;;;;;5077482;28;20037;-69
2022/06/10 06:02:50;;;;;;;5.22;1.60;;;17.50;99.90;;;;;;5076378;28;20292;-69
2022/06/10 06:05:18;;;;;;;11.23;1.67;;;17.50;99.90;;;;;;5077116;28;20032;-70
2022/06/10 06:07:45;;;;;;;8.82;1.48;;;17.70;99.90;;;;;;5076460;28;20086;-70
2022/06/10 06:10:14;;;;;;;6.85;1.75;;;17.90;99.90;;;;;;5077000;28;20043;-70
2022/06/10 06:12:39;;;;;;;5.32;1.30;;;17.80;99.90;;;;;;5076913;28;20104;-70
2022/06/10 06:15:06;;;;;;;5.35;1.40;;;17.70;99.90;;;;;;5077018;28;20136;-70
2022/06/10 06:17:32;;;;;;;6.53;1.60;;;17.80;99.90;;;;;;5077108;28;20043;-70
2022/06/10 06:19:57;;;;;;;11.25;1.70;;;17.70;99.90;;;;;;5076904;28;20404;-70
2022/06/10 06:22:23;;;;;;;5.82;1.33;;;17.60;99.90;;;;;;5076817;28;20047;-66
2022/06/10 06:24:49;;;;;;;6.50;1.20;;;17.80;99.90;;;;;;5077363;28;20036;-70
2022/06/10 06:27:16;;;;;;;6.72;1.33;;;17.90;99.90;;;;;;5077019;28;20032;-71
2022/06/10 06:29:43;;;;;;;6.82;1.48;;;18.00;99.90;;;;;;5077265;28;20029;-71
2022/06/10 06:32:09;;;;;;;9.20;1.58;;;18.00;99.90;;;;;;5076148;28;20111;-71
2022/06/10 06:34:37;;;;;;;6.28;1.20;;;18.10;99.90;;;;;;5076621;28;20033;-70
2022/06/10 06:37:03;;;;;;;4.95;1.20;;;18.10;99.90;;;;;;5076710;28;20346;-71
2022/06/10 06:39:28;;;;;;;5.90;1.40;;;18.20;99.90;;;;;;5076754;28;20045;-70
2022/06/10 06:41:55;;;;;;;6.53;1.50;;;18.30;99.90;;;;;;5076577;28;20411;-71
2022/06/10 06:44:31;;;;;;;5.07;1.20;;;18.20;99.90;;;;;;5077053;28;20024;-71
2022/06/10 06:46:57;;;;;;;6.78;1.52;;;18.00;99.90;;;;;;5076791;28;20032;-70
2022/06/10 06:49:25;;;;;;;7.18;1.55;;;17.90;99.90;;;;;;5076901;28;20056;-71
2022/06/10 06:51:52;;;;;;;12.20;1.60;;;18.00;99.90;;;;;;5076497;28;20049;-71
2022/06/10 06:54:19;;;;;;;9.35;1.40;;;17.80;99.90;;;;;;5076599;28;20081;-71
2022/06/10 06:56:46;;;;;;;8.32;1.60;;;17.80;99.90;;;;;;5059301;28;20032;-71
2022/06/10 06:59:12;;;;;;;7.88;1.38;;;17.80;99.90;;;;;;5076913;28;20060;-70
2022/06/10 07:01:38;;;;;;;7.43;1.50;;;17.80;99.90;;;;;;5076543;28;20024;-67
2022/06/10 07:04:05;;;;;;;5.60;1.65;;;17.70;99.90;;;;;;5076711;28;20423;-70
2022/06/10 07:06:32;;;;;;;6.90;1.42;;;17.70;99.90;;;;;;5076520;28;20347;-69
2022/06/10 07:08:58;;;;;;;4.88;1.45;;;17.70;99.90;;;;;;5079391;28;20040;-68
2022/06/10 07:11:24;;;;;;;5.15;1.42;;;17.70;99.90;;;;;;5080246;28;20415;-68
2022/06/10 07:13:49;;;;;;;7.22;1.40;;;17.70;99.90;;;;;;5079952;28;20385;-68
2022/06/10 07:16:16;;;;;;;6.45;1.30;;;17.80;99.90;;;;;;5080032;28;20031;-69
2022/06/10 07:18:42;;;;;;;6.70;1.50;;;17.90;99.90;;;;;;5079872;28;20066;-68
2022/06/10 07:21:08;;;;;;;8.15;1.35;;;17.90;99.90;;;;;;5080141;28;20262;-69
2022/06/10 07:23:34;;;;;;;7.03;1.77;;;18.10;99.90;;;;;;5079762;28;20028;-69
2022/06/10 07:26:02;;;;;;;7.82;1.55;;;18.20;99.90;;;;;;5079046;28;20032;-69
2022/06/10 07:28:28;;;;;;;7.15;1.42;;;18.20;99.90;;;;;;5079570;28;20047;-68
2022/06/10 07:30:53;;;;;;;8.30;1.80;;;18.20;99.90;;;;;;5078894;28;20396;-69
2022/06/10 07:33:19;;;;;;;7.07;1.75;;;18.50;99.90;;;;;;5079778;28;20043;-65
2022/06/10 07:35:45;;;;;;;4.68;1.38;;;18.60;99.90;;;;;;5079396;28;20319;-67
2022/06/10 07:38:12;;;;;;;6.28;1.55;;;18.60;99.90;;;;;;5079547;28;20098;-70
2022/06/10 07:43:27;;;;;;;4.22;1.30;;;18.80;99.90;;;;;;5079653;28;20304;-64
2022/06/10 07:45:54;;;;;;;7.32;1.60;;;18.80;99.90;;;;;;5079425;28;20030;-66
2022/06/10 07:48:20;;;;;;;6.60;1.67;;;18.90;99.90;;;;;;5079441;28;20024;-65
2022/06/10 07:50:47;;;;;;;8.23;1.63;;;18.90;99.90;;;;;;5078720;28;20047;-66
2022/06/10 07:53:13;;;;;;;11.10;2.10;;;19.00;99.90;;;;;;5079091;28;20048;-65
2022/06/10 07:55:40;;;;;;;5.57;1.40;;;19.00;99.90;;;;;;5079217;28;20044;-65
2022/06/10 07:58:07;;;;;;;6.53;2.15;;;19.40;99.90;;;;;;5079256;28;20042;-65
2022/06/10 08:00:34;;;;;;;8.38;1.90;;;19.20;99.90;;;;;;5079151;28;20093;-67
2022/06/10 08:03:01;;;;;;;10.40;1.95;;;19.30;99.90;;;;;;5078455;28;20107;-64
2022/06/10 08:05:28;;;;;;;8.32;1.90;;;19.10;99.90;;;;;;5079074;28;20399;-63
2022/06/10 08:07:54;;;;;;;8.75;1.70;;;18.90;99.90;;;;;;5078983;28;20037;-66
2022/06/10 08:10:33;;;;;;;6.85;1.88;;;18.90;99.90;;;;;;5079252;28;20029;-64
2022/06/10 08:13:00;;;;;;;6.13;2.00;;;19.30;99.90;;;;;;5079244;28;20315;-64
2022/06/10 08:15:27;;;;;;;8.07;1.90;;;19.40;99.90;;;;;;5078802;28;20093;-65
2022/06/10 08:17:56;;;;;;;6.25;1.90;;;19.80;99.90;;;;;;5078787;28;20048;-67
2022/06/10 08:23:14;;;;;;;7.85;2.08;;;19.60;99.90;;;;;;5078749;28;20059;-67
2022/06/10 08:25:40;;;;;;;7.78;2.00;;;19.80;99.90;;;;;;5078608;28;20033;-66
2022/06/10 08:28:06;;;;;;;8.85;2.08;;;20.00;99.90;;;;;;5078680;28;20108;-66
2022/06/10 08:30:32;;;;;;;6.30;1.83;;;19.80;99.90;;;;;;5078500;28;20066;-66
2022/06/10 08:32:59;;;;;;;6.57;2.00;;;19.40;99.90;;;;;;5078495;28;20036;-64
2022/06/10 08:35:25;;;;;;;7.28;1.77;;;19.40;99.90;;;;;;5078345;28;20089;-66
2022/06/10 08:37:51;;;;;;;8.50;2.10;;;19.40;99.90;;;;;;5078493;28;20360;-66
2022/06/10 08:40:28;;;;;;;7.60;1.95;;;19.90;99.90;;;;;;5077786;28;20066;-66
2022/06/10 08:43:01;;;;;;;5.43;1.95;;;20.10;99.90;;;;;;5077807;28;20032;-65
2022/06/10 08:45:48;;;;;;;7.38;1.80;;;19.90;99.90;;;;;;5078369;28;20032;-66
2022/06/10 08:48:33;;;;;;;7.90;1.80;;;20.00;99.90;;;;;;5078055;28;20103;-63
2022/06/10 08:51:26;;;;;;;6.47;2.10;;;20.40;99.90;;;;;;5078123;28;20439;-66
2022/06/10 08:54:08;;;;;;;8.80;2.05;;;20.50;99.90;;;;;;5078048;28;20095;-64
2022/06/10 08:56:40;;;;;;;4.85;1.80;;;20.10;99.90;;;;;;5077361;28;20035;-65
2022/06/10 08:59:14;;;;;;;6.95;1.70;;;19.90;99.90;;;;;;5078046;28;20052;-65
2022/06/10 09:02:15;;;;;;;6.53;1.90;;;19.90;99.90;;;;;;5077994;28;20273;-64
2022/06/10 09:04:54;;;;;;;7.60;2.03;;;20.00;99.90;;;;;;5077637;28;20060;-64
2022/06/10 09:07:25;;;;;;;7.32;1.70;;;20.20;99.90;;;;;;5077914;28;20354;-65
2022/06/10 09:09:53;;;;;;;3.97;1.30;;;20.70;99.90;;;;;;5077805;28;20320;-64
2022/06/10 09:12:49;;;;;;;6.03;1.92;;;21.20;99.90;;;;;;5076966;28;20036;-64
2022/06/10 09:15:17;;;;;;;7.47;1.38;;;21.20;99.90;;;;;;5077485;28;20064;-63
2022/06/10 09:17:51;;;;;;;6.22;1.63;;;21.30;99.90;;;;;;5077640;28;20033;-64
2022/06/10 09:20:31;;;;;;;6.35;1.70;;;21.70;99.90;;;;;;5076937;28;20102;-64
2022/06/10 09:23:15;;;;;;;8.05;1.70;;;21.80;99.90;;;;;;5077593;28;20028;-64
2022/06/10 09:25:46;;;;;;;5.53;1.40;;;21.30;99.90;;;;;;5078074;28;20099;-65
2022/06/10 09:28:12;;;;;;;7.90;1.75;;;21.30;99.90;;;;;;5077389;28;20032;-65
2022/06/10 09:31:06;;;;;;;6.40;1.58;;;21.30;99.90;;;;;;5076773;28;20308;-64
2022/06/10 09:33:58;;;;;;;4.30;1.48;;;21.50;99.90;;;;;;5077327;28;20376;-64
2022/06/10 09:36:44;;;;;;;6.25;1.48;;;21.00;99.90;;;;;;5077521;28;20098;-64
2022/06/10 09:42:15;;;;;;;8.45;1.67;;;21.00;99.90;;;;;;5076905;28;20064;-63
2022/06/10 09:44:53;;;;;;;3.90;1.42;;;21.30;99.90;;;;;;5077216;28;20338;-64
2022/06/10 09:47:47;;;;;;;6.72;1.80;;;21.50;99.90;;;;;;5077271;28;20021;-62
2022/06/10 09:50:33;;;;;;;5.90;1.63;;;21.60;99.90;;;;;;5077123;28;20032;-66
2022/06/10 09:53:17;;;;;;;8.30;1.90;;;21.30;99.90;;;;;;5076928;28;20052;-63
2022/06/10 09:56:04;;;;;;;6.45;1.80;;;21.30;99.90;;;;;;5076950;28;20036;-64
2022/06/10 09:58:42;;;;;;;4.97;1.55;;;21.80;99.90;;;;;;5077066;28;20123;-65
2022/06/10 10:01:37;;;;;;;9.10;2.10;;;22.20;99.90;;;;;;5076130;28;20136;-65
2022/06/10 10:04:21;;;;;;;8.98;1.70;;;21.90;99.90;;;;;;5076727;28;20438;-64
2022/06/10 10:06:50;;;;;;;6.53;1.65;;;21.90;99.90;;;;;;5076603;28;20111;-63
2022/06/10 10:09:44;;;;;;;6.30;1.80;;;21.80;99.90;;;;;;5077077;28;20036;-63
2022/06/10 10:12:18;;;;;;;7.35;2.08;;;21.80;99.90;;;;;;5077036;28;20093;-65
2022/06/10 10:15:29;;;;;;;9.25;1.73;;;21.80;99.90;;;;;;5077473;28;20040;-64
2022/06/10 10:18:33;;;;;;;7.03;1.90;;;22.10;99.90;;;;;;5076325;28;20319;-64
2022/06/10 10:21:08;;;;;;;10.40;2.00;;;21.90;99.90;;;;;;5076745;28;20069;-65
2022/06/10 10:23:38;;;;;;;6.93;1.75;;;22.10;99.90;;;;;;5076770;28;20027;-65
2022/06/10 10:26:13;;;;;;;6.75;1.88;;;22.80;99.90;;;;;;5076757;28;20044;-64
2022/06/10 10:28:42;;;;;;;7.72;2.15;;;23.30;99.90;;;;;;5076808;28;20029;-64
2022/06/10 10:31:26;;;;;;;9.02;2.30;;;23.50;99.90;;;;;;5077001;28;20434;-65
2022/06/10 10:33:52;;;;;;;5.78;1.90;;;23.50;99.90;;;;;;5076604;28;20048;-64
2022/06/10 10:36:32;;;;;;;6.47;1.73;;;23.00;99.90;;;;;;5059200;28;20029;-67
2022/06/10 10:39:13;;;;;;;8.60;1.88;;;22.60;99.90;;;;;;5076697;28;20113;-63
2022/06/10 10:41:48;;;;;;;4.85;1.80;;;22.30;99.90;;;;;;5075920;28;20259;-65
2022/06/10 10:44:38;;;;;;;8.68;1.75;;;22.20;99.90;;;;;;5080261;28;20036;-64
2022/06/10 10:47:09;;;;;;;7.72;1.65;;;22.40;99.90;;;;;;5080551;28;20029;-63
2022/06/10 10:49:46;;;;;;;3.80;1.50;;;22.80;99.90;;;;;;5080542;28;20401;-64
2022/06/10 10:52:26;;;;;;;6.97;1.90;;;22.70;99.90;;;;;;5080468;28;20062;-63
2022/06/10 10:55:14;;;;;;;8.48;2.05;;;22.90;99.90;;;;;;5080412;28;20436;-65
2022/06/10 10:57:53;;;;;;;5.22;1.90;;;23.00;99.90;;;;;;5080295;28;20040;-65
2022/06/10 11:00:37;;;;;;;7.13;1.60;;;22.90;99.90;;;;;;5080852;28;20029;-66
2022/06/10 11:03:04;;;;;;;6.95;1.77;;;22.80;99.90;;;;;;5079629;28;20070;-65
2022/06/10 11:05:37;;;;;;;6.47;1.77;;;23.10;99.90;;;;;;5080133;28;20060;-66
2022/06/10 11:08:05;;;;;;;;;;;23.30;99.90;;;;;;5079839;28;20025;-64
2022/06/10 11:10:34;;;;;;;7.72;1.55;;;23.30;99.90;;;;;;5080134;28;20021;-64
2022/06/10 11:13:07;;;;;;;7.10;1.55;;;23.10;99.90;;;;;;5079994;28;20165;-66
2022/06/10 11:15:34;;;;;;;6.60;1.65;;;23.10;99.90;;;;;;5079998;28;20028;-65
2022/06/10 11:18:02;;;;;;;9.25;1.75;;;23.10;99.90;;;;;;5079854;28;20024;-66
2022/06/10 11:20:33;;;;;;;5.30;1.67;;;22.80;99.90;;;;;;5079837;28;20020;-64
2022/06/10 11:23:32;;;;;;;8.73;1.80;;;22.60;99.90;;;;;;5079058;28;20025;-65
2022/06/10 11:26:13;;;;;;;5.03;1.60;;;23.00;99.90;;;;;;5079020;28;20072;-68
2022/06/10 11:28:42;;;;;;;5.90;1.73;;;23.00;99.90;;;;;;5079186;28;20056;-67
2022/06/10 11:31:21;;;;;;;8.30;1.92;;;23.00;99.90;;;;;;5080118;28;20055;-64
2022/06/10 11:33:51;;;;;;;8.15;1.95;;;23.20;99.90;;;;;;5078949;28;20028;-64
2022/06/10 11:36:45;;;;;;;6.07;1.48;;;23.80;99.90;;;;;;5078920;28;20033;-64
2022/06/10 11:39:22;;;;;;;9.95;2.03;;;23.90;99.90;;;;;;5079652;28;20033;-66
2022/06/10 11:42:17;;;;;;;8.90;2.20;;;24.10;99.90;;;;;;5078831;28;20032;-67
2022/06/10 11:45:17;;;;;;;4.57;1.38;;;23.90;99.90;;;;;;5079716;28;20068;-65
2022/06/10 11:48:32;;;;;;;5.80;2.00;;;23.60;99.90;;;;;;5079137;28;20127;-68
2022/06/10 11:51:33;;;;;;;6.97;1.60;;;22.80;99.90;;;;;;5071347;28;20074;-66
2022/06/10 11:54:29;;;;;;;4.80;1.48;;;23.00;99.90;;;;;;5078476;28;20043;-64
2022/06/10 12:00:02;;;;;;;7.03;1.45;;;23.20;99.90;;;;;;5095787;28;20075;-66
2022/06/10 12:03:02;;;;;;;7.13;1.90;;;24.10;99.90;;;;;;5079182;28;20021;-63
2022/06/10 12:05:44;;;;;;;4.93;1.48;;;24.90;99.90;;;;;;5079750;28;20095;-65
2022/06/10 12:08:32;;;;;;;4.38;1.67;;;24.10;99.90;;;;;;5078346;28;20411;-66
2022/06/10 12:11:24;;;;;;;7.90;1.80;;;25.00;99.90;;;;;;5078827;28;20099;-65
2022/06/10 12:14:36;;;;;;;6.82;1.80;;;25.10;99.90;;;;;;5078279;28;20064;-65
2022/06/10 12:17:06;;;;;;;7.43;1.83;;;25.20;99.90;;;;;;5078714;28;20044;-64
2022/06/10 12:19:39;;;;;;;3.85;1.65;;;25.40;99.90;;;;;;5078916;28;20293;-65
2022/06/10 12:22:05;;;;;;;5.57;1.60;;;25.80;99.90;;;;;;5078119;28;20025;-64
2022/06/10 12:24:31;;;;;;;5.82;1.73;;;25.00;99.90;;;;;;5079342;28;20024;-65
2022/06/10 12:27:02;;;;;;;7.28;1.92;;;25.20;99.90;;;;;;5078613;28;20047;-65
2022/06/10 12:29:43;;;;;;;7.88;2.03;;;25.90;99.90;;;;;;5077950;28;20032;-64
2022/06/10 12:32:28;;;;;;;9.13;1.90;;;26.30;99.90;;;;;;5078570;28;20102;-64
2022/06/10 12:34:59;;;;;;;6.85;1.98;;;27.70;99.90;;;;;;5077669;28;20290;-66
2022/06/10 12:37:46;;;;;;;6.32;1.90;;;27.70;99.90;;;;;;5078412;28;20060;-62
2022/06/10 12:40:33;;;;;;;7.82;1.80;;;28.10;99.90;;;;;;5079026;28;20069;-62
2022/06/10 12:43:20;;;;;;;5.07;2.03;;;28.60;99.90;;;;;;5078395;28;20467;-64
2022/06/10 12:45:46;;;;;;;5.63;2.30;;;26.80;99.90;;;;;;5077577;28;20350;-64
2022/06/10 12:48:13;;;;;;;4.95;2.08;;;25.40;99.90;;;;;;5078082;28;20032;-64
2022/06/10 12:50:58;;;;;;;8.02;2.35;;;24.90;99.90;;;;;;5077614;28;20304;-62
2022/06/10 12:53:49;;;;;;;5.07;1.90;;;24.60;99.90;;;;;;5078036;28;20425;-63
2022/06/10 12:56:34;;;;;;;7.18;2.38;;;24.30;99.90;;;;;;5078141;28;20032;-64
2022/06/10 12:59:12;;;;;;;5.05;1.98;;;24.60;99.90;;;;;;5078012;28;20075;-63
2022/06/10 13:01:38;;;;;;;8.38;2.13;;;24.90;99.90;;;;;;5077287;28;20038;-63
2022/06/10 13:04:15;;;;;;;5.95;2.22;;;25.40;99.90;;;;;;5077900;28;20020;-65
2022/06/10 13:06:44;;;;;;;4.75;1.92;;;25.20;99.90;;;;;;5077690;28;20016;-65
2022/06/10 13:09:10;;;;;;;4.47;1.90;;;25.00;99.90;;;;;;5077832;28;20033;-64
2022/06/10 13:11:46;;;;;;;5.35;2.03;;;24.80;99.90;;;;;;5077808;28;20081;-63
2022/06/10 13:14:16;;;;;;;7.82;2.25;;;24.80;99.90;;;;;;5077818;28;20070;-65
2022/06/10 13:16:47;;;;;;;5.85;2.15;;;24.30;99.90;;;;;;5077641;28;20070;-64
2022/06/10 13:19:37;;;;;;;5.63;2.03;;;23.80;99.90;;;;;;5077797;28;20021;-65
2022/06/10 13:22:21;;;;;;;10.60;2.40;;;23.90;99.90;;;;;;5077624;28;20024;-65
2022/06/10 13:24:52;;;;;;;6.03;2.50;;;24.20;99.90;;;;;;5077767;28;20449;-64
2022/06/10 13:27:31;;;;;;;8.45;2.20;;;24.10;99.90;;;;;;5077528;28;20028;-64
2022/06/10 13:30:01;;;;;;;7.60;2.60;;;24.20;99.90;;;;;;5078069;28;20043;-65
2022/06/10 13:32:28;;;;;;;5.60;2.17;;;23.70;99.90;;;;;;5077698;28;20028;-63
2022/06/10 13:34:56;;;;;;;5.40;2.53;;;24.10;99.90;;;;;;5077909;28;20029;-63
2022/06/10 13:37:24;;;;;;;7.97;2.58;;;24.00;99.90;;;;;;5077249;28;20111;-62
2022/06/10 13:39:53;;;;;;;6.13;2.33;;;23.80;99.90;;;;;;5076567;28;20098;-64